sensor_id;sensor_type;location;lat;lon;timestamp;temperature;humidity
21698;DHT22;11010;49.548;11.926;2023-02-28T00:01:13;0.00;99.90
21698;DHT22;11010;49.548;11.926;2023-02-28T00:03:41;-0.10;99.90
21698;DHT22;11010;49.548;11.926;2023-02-28T00:06:09;-0.10;99.90
21698;DHT22;11010;49.548;11.926;2023-02-28T00:08:37;-0.10;99.90
21698;DHT22;11010;49.548;11.926;2023-02-28T00:11:06;-0.10;99.90
21698;DHT22;11010;49.548;11.926;2023-02-28T00:13:37;-0.20;99.90
21698;DHT22;11010;49.548;11.926;2023-02-28T00:16:11;-0.40;99.90
21698;DHT22;11010;49.548;11.926;2023-02-28T00:18:40;-0.20;99.90
21698;DHT22;11010;49.548;11.926;2023-02-28T00:21:08;-0.10;99.90
21698;DHT22;11010;49.548;11.926;2023-02-28T00:23:35;-0.10;99.90
21698;DHT22;11010;49.548;11.926;2023-02-28T00:26:03;-0.20;99.90
21698;DHT22;11010;49.548;11.926;2023-02-28T00:28:30;-0.20;99.90
21698;DHT22;11010;49.548;11.926;2023-02-28T00:30:58;-0.60;99.90
21698;DHT22;11010;49.548;11.926;2023-02-28T00:33:28;-0.40;99.90
21698;DHT22;11010;49.548;11.926;2023-02-28T00:36:03;-0.50;99.90
21698;DHT22;11010;49.548;11.926;2023-02-28T00:38:31;-0.40;99.90
21698;DHT22;11010;49.548;11.926;2023-02-28T00:40:59;-0.40;99.90
21698;DHT22;11010;49.548;11.926;2023-02-28T00:43:36;-0.40;99.90
21698;DHT22;11010;49.548;11.926;2023-02-28T00:46:04;-0.40;99.90
21698;DHT22;11010;49.548;11.926;2023-02-28T00:48:31;-0.50;99.90
21698;DHT22;11010;49.548;11.926;2023-02-28T00:50:59;-0.40;99.90
21698;DHT22;11010;49.548;11.926;2023-02-28T00:53:27;-0.40;99.90
21698;DHT22;11010;49.548;11.926;2023-02-28T00:55:56;-0.50;99.90
21698;DHT22;11010;49.548;11.926;2023-02-28T00:58:25;-0.50;99.90
21698;DHT22;11010;49.548;11.926;2023-02-28T01:00:53;-0.70;99.90
21698;DHT22;11010;49.548;11.926;2023-02-28T01:03:21;-0.70;99.90
21698;DHT22;11010;49.548;11.926;2023-02-28T01:05:49;-0.50;99.90
21698;DHT22;11010;49.548;11.926;2023-02-28T01:08:17;-0.40;99.90
21698;DHT22;11010;49.548;11.926;2023-02-28T01:10:44;-0.30;99.90
21698;DHT22;11010;49.548;11.926;2023-02-28T01:13:12;-0.50;99.90
21698;DHT22;11010;49.548;11.926;2023-02-28T01:15:43;-0.40;99.90
21698;DHT22;11010;49.548;11.926;2023-02-28T01:18:11;-0.40;99.90
21698;DHT22;11010;49.548;11.926;2023-02-28T01:20:38;-0.50;99.90
21698;DHT22;11010;49.548;11.926;2023-02-28T01:23:06;-0.60;99.90
21698;DHT22;11010;49.548;11.926;2023-02-28T01:25:37;-0.70;99.90
21698;DHT22;11010;49.548;11.926;2023-02-28T01:28:05;-0.60;99.90
21698;DHT22;11010;49.548;11.926;2023-02-28T01:30:33;-0.70;99.90
21698;DHT22;11010;49.548;11.926;2023-02-28T01:33:01;-0.70;99.90
21698;DHT22;11010;49.548;11.926;2023-02-28T01:35:32;-0.80;99.90
21698;DHT22;11010;49.548;11.926;2023-02-28T01:38:00;-0.90;99.90
21698;DHT22;11010;49.548;11.926;2023-02-28T01:40:46;-0.80;99.90
21698;DHT22;11010;49.548;11.926;2023-02-28T01:43:28;-0.90;99.90
21698;DHT22;11010;49.548;11.926;2023-02-28T01:45:57;-0.90;99.90
21698;DHT22;11010;49.548;11.926;2023-02-28T01:48:32;-0.90;99.90
21698;DHT22;11010;49.548;11.926;2023-02-28T01:51:07;-0.90;99.90
21698;DHT22;11010;49.548;11.926;2023-02-28T01:53:39;-0.90;99.90
21698;DHT22;11010;49.548;11.926;2023-02-28T01:56:10;-0.80;99.90
21698;DHT22;11010;49.548;11.926;2023-02-28T01:58:38;-1.10;99.90
21698;DHT22;11010;49.548;11.926;2023-02-28T02:01:05;-1.20;99.90
21698;DHT22;11010;49.548;11.926;2023-02-28T02:03:35;-1.20;99.90
21698;DHT22;11010;49.548;11.926;2023-02-28T02:06:02;-1.00;99.90
21698;DHT22;11010;49.548;11.926;2023-02-28T02:08:30;-1.00;99.90
21698;DHT22;11010;49.548;11.926;2023-02-28T02:10:59;-0.90;99.90
21698;DHT22;11010;49.548;11.926;2023-02-28T02:13:37;-1.10;99.90
21698;DHT22;11010;49.548;11.926;2023-02-28T02:16:11;-1.10;99.90
21698;DHT22;11010;49.548;11.926;2023-02-28T02:18:43;-0.80;99.90
21698;DHT22;11010;49.548;11.926;2023-02-28T02:23:51;-1.00;99.90
21698;DHT22;11010;49.548;11.926;2023-02-28T02:38:03;-1.30;99.90
21698;DHT22;11010;49.548;11.926;2023-02-28T02:40:38;-1.30;99.90
21698;DHT22;11010;49.548;11.926;2023-02-28T02:43:28;-1.50;99.90
21698;DHT22;11010;49.548;11.926;2023-02-28T02:46:36;-1.50;99.90
21698;DHT22;11010;49.548;11.926;2023-02-28T02:48:57;-1.30;99.90
21698;DHT22;11010;49.548;11.926;2023-02-28T02:51:26;-1.30;99.90
21698;DHT22;11010;49.548;11.926;2023-02-28T02:54:15;-1.40;99.90
21698;DHT22;11010;49.548;11.926;2023-02-28T02:56:47;-1.60;99.90
21698;DHT22;11010;49.548;11.926;2023-02-28T02:59:18;-1.70;99.90
21698;DHT22;11010;49.548;11.926;2023-02-28T03:02:10;-1.50;99.90
21698;DHT22;11010;49.548;11.926;2023-02-28T03:04:48;-1.60;99.90
21698;DHT22;11010;49.548;11.926;2023-02-28T03:07:20;-1.50;99.90
21698;DHT22;11010;49.548;11.926;2023-02-28T03:09:52;-1.30;99.90
21698;DHT22;11010;49.548;11.926;2023-02-28T03:12:20;-1.30;99.90
21698;DHT22;11010;49.548;11.926;2023-02-28T03:15:43;-1.30;99.90
21698;DHT22;11010;49.548;11.926;2023-02-28T03:18:10;-1.50;99.90
21698;DHT22;11010;49.548;11.926;2023-02-28T03:21:05;-1.70;99.90
21698;DHT22;11010;49.548;11.926;2023-02-28T03:26:23;-1.70;99.90
21698;DHT22;11010;49.548;11.926;2023-02-28T03:31:40;-1.60;99.90
21698;DHT22;11010;49.548;11.926;2023-02-28T03:34:14;-1.80;99.90
21698;DHT22;11010;49.548;11.926;2023-02-28T03:36:47;-1.60;99.90
21698;DHT22;11010;49.548;11.926;2023-02-28T03:39:22;-1.80;99.90
21698;DHT22;11010;49.548;11.926;2023-02-28T03:41:58;-2.00;99.90
21698;DHT22;11010;49.548;11.926;2023-02-28T03:44:34;-1.90;99.90
21698;DHT22;11010;49.548;11.926;2023-02-28T03:47:12;-1.80;99.90
21698;DHT22;11010;49.548;11.926;2023-02-28T03:52:27;-1.80;99.90
21698;DHT22;11010;49.548;11.926;2023-02-28T03:54:59;-1.80;99.90
21698;DHT22;11010;49.548;11.926;2023-02-28T04:00:09;-1.40;99.90
21698;DHT22;11010;49.548;11.926;2023-02-28T04:02:40;-1.60;99.90
21698;DHT22;11010;49.548;11.926;2023-02-28T04:05:08;-1.60;99.90
21698;DHT22;11010;49.548;11.926;2023-02-28T04:07:36;-1.70;99.90
21698;DHT22;11010;49.548;11.926;2023-02-28T04:10:04;-1.80;99.90
21698;DHT22;11010;49.548;11.926;2023-02-28T04:12:31;-1.80;99.90
21698;DHT22;11010;49.548;11.926;2023-02-28T04:14:58;-1.70;99.90
21698;DHT22;11010;49.548;11.926;2023-02-28T04:17:25;-1.70;99.90
21698;DHT22;11010;49.548;11.926;2023-02-28T04:19:53;-1.50;99.90
21698;DHT22;11010;49.548;11.926;2023-02-28T04:22:24;-1.40;99.90
21698;DHT22;11010;49.548;11.926;2023-02-28T04:24:53;-1.40;99.90
21698;DHT22;11010;49.548;11.926;2023-02-28T04:27:21;-1.30;99.90
21698;DHT22;11010;49.548;11.926;2023-02-28T04:29:48;-1.30;99.90
21698;DHT22;11010;49.548;11.926;2023-02-28T04:32:15;-1.40;99.90
21698;DHT22;11010;49.548;11.926;2023-02-28T04:34:42;-1.50;99.90
21698;DHT22;11010;49.548;11.926;2023-02-28T04:37:10;-1.50;99.90
21698;DHT22;11010;49.548;11.926;2023-02-28T04:43:10;-1.60;99.90
21698;DHT22;11010;49.548;11.926;2023-02-28T04:45:38;-1.50;99.90
21698;DHT22;11010;49.548;11.926;2023-02-28T04:48:05;-1.40;99.90
21698;DHT22;11010;49.548;11.926;2023-02-28T04:50:32;-1.50;99.90
21698;DHT22;11010;49.548;11.926;2023-02-28T04:53:00;-1.60;99.90
21698;DHT22;11010;49.548;11.926;2023-02-28T04:55:27;-1.60;99.90
21698;DHT22;11010;49.548;11.926;2023-02-28T04:57:55;-1.80;99.90
21698;DHT22;11010;49.548;11.926;2023-02-28T05:00:22;-2.00;99.90
21698;DHT22;11010;49.548;11.926;2023-02-28T05:02:49;-2.00;99.90
21698;DHT22;11010;49.548;11.926;2023-02-28T05:05:17;-2.10;99.90
21698;DHT22;11010;49.548;11.926;2023-02-28T05:07:45;-2.00;99.90
21698;DHT22;11010;49.548;11.926;2023-02-28T05:10:13;-2.00;99.90
21698;DHT22;11010;49.548;11.926;2023-02-28T05:12:40;-2.20;99.90
21698;DHT22;11010;49.548;11.926;2023-02-28T05:15:12;-2.10;99.90
21698;DHT22;11010;49.548;11.926;2023-02-28T05:17:40;-2.20;99.90
21698;DHT22;11010;49.548;11.926;2023-02-28T05:20:08;-2.10;99.90
21698;DHT22;11010;49.548;11.926;2023-02-28T05:22:42;-1.90;99.90
21698;DHT22;11010;49.548;11.926;2023-02-28T05:25:18;-1.80;99.90
21698;DHT22;11010;49.548;11.926;2023-02-28T05:27:46;-1.90;99.90
21698;DHT22;11010;49.548;11.926;2023-02-28T05:30:14;-2.00;99.90
21698;DHT22;11010;49.548;11.926;2023-02-28T05:32:42;-2.00;99.90
21698;DHT22;11010;49.548;11.926;2023-02-28T05:35:12;-1.80;99.90
21698;DHT22;11010;49.548;11.926;2023-02-28T05:37:39;-1.80;99.90
21698;DHT22;11010;49.548;11.926;2023-02-28T05:40:07;-2.00;99.90
21698;DHT22;11010;49.548;11.926;2023-02-28T05:42:38;-1.90;99.90
21698;DHT22;11010;49.548;11.926;2023-02-28T05:45:05;-2.00;99.90
21698;DHT22;11010;49.548;11.926;2023-02-28T05:47:34;-1.80;99.90
21698;DHT22;11010;49.548;11.926;2023-02-28T05:50:03;-1.70;99.90
21698;DHT22;11010;49.548;11.926;2023-02-28T05:52:30;-1.60;99.90
21698;DHT22;11010;49.548;11.926;2023-02-28T05:54:58;-1.60;99.90
21698;DHT22;11010;49.548;11.926;2023-02-28T05:57:25;-1.50;99.90
21698;DHT22;11010;49.548;11.926;2023-02-28T05:59:52;-1.50;99.90
21698;DHT22;11010;49.548;11.926;2023-02-28T06:02:20;-1.70;99.90
21698;DHT22;11010;49.548;11.926;2023-02-28T06:04:47;-1.70;99.90
21698;DHT22;11010;49.548;11.926;2023-02-28T06:07:15;-1.70;99.90
21698;DHT22;11010;49.548;11.926;2023-02-28T06:09:44;-1.60;99.90
21698;DHT22;11010;49.548;11.926;2023-02-28T06:12:11;-1.50;99.90
21698;DHT22;11010;49.548;11.926;2023-02-28T06:14:38;-1.70;99.90
21698;DHT22;11010;49.548;11.926;2023-02-28T06:17:06;-1.60;99.90
21698;DHT22;11010;49.548;11.926;2023-02-28T06:19:33;-1.50;99.90
21698;DHT22;11010;49.548;11.926;2023-02-28T06:22:01;-1.50;99.90
21698;DHT22;11010;49.548;11.926;2023-02-28T06:24:28;-1.50;99.90
21698;DHT22;11010;49.548;11.926;2023-02-28T06:26:56;-1.40;99.90
21698;DHT22;11010;49.548;11.926;2023-02-28T06:29:24;-1.40;99.90
21698;DHT22;11010;49.548;11.926;2023-02-28T06:31:52;-1.30;99.90
21698;DHT22;11010;49.548;11.926;2023-02-28T06:34:19;-1.40;99.90
21698;DHT22;11010;49.548;11.926;2023-02-28T06:36:47;-1.40;99.90
21698;DHT22;11010;49.548;11.926;2023-02-28T06:39:17;-1.30;99.90
21698;DHT22;11010;49.548;11.926;2023-02-28T06:41:45;-1.40;99.90
21698;DHT22;11010;49.548;11.926;2023-02-28T06:44:22;-1.40;99.90
21698;DHT22;11010;49.548;11.926;2023-02-28T06:46:50;-1.40;99.90
21698;DHT22;11010;49.548;11.926;2023-02-28T06:49:18;-1.30;99.90
21698;DHT22;11010;49.548;11.926;2023-02-28T06:51:45;-1.20;99.90
21698;DHT22;11010;49.548;11.926;2023-02-28T06:54:13;-1.30;99.90
21698;DHT22;11010;49.548;11.926;2023-02-28T06:56:40;-1.30;99.90
21698;DHT22;11010;49.548;11.926;2023-02-28T06:59:08;-1.20;99.90
21698;DHT22;11010;49.548;11.926;2023-02-28T07:01:35;-1.20;99.90
21698;DHT22;11010;49.548;11.926;2023-02-28T07:04:05;-1.10;99.90
21698;DHT22;11010;49.548;11.926;2023-02-28T07:06:32;-1.10;99.90
21698;DHT22;11010;49.548;11.926;2023-02-28T07:08:59;-1.00;99.90
21698;DHT22;11010;49.548;11.926;2023-02-28T07:11:27;-1.10;99.90
21698;DHT22;11010;49.548;11.926;2023-02-28T07:13:56;-1.10;99.90
21698;DHT22;11010;49.548;11.926;2023-02-28T07:16:26;-1.10;99.90
21698;DHT22;11010;49.548;11.926;2023-02-28T07:18:54;-1.10;99.90
21698;DHT22;11010;49.548;11.926;2023-02-28T07:21:22;-1.20;99.90
21698;DHT22;11010;49.548;11.926;2023-02-28T07:23:50;-1.10;99.90
21698;DHT22;11010;49.548;11.926;2023-02-28T07:26:20;-1.10;99.90
21698;DHT22;11010;49.548;11.926;2023-02-28T07:28:48;-1.10;99.90
21698;DHT22;11010;49.548;11.926;2023-02-28T07:31:16;-1.00;99.90
21698;DHT22;11010;49.548;11.926;2023-02-28T07:33:45;-1.00;99.90
21698;DHT22;11010;49.548;11.926;2023-02-28T07:36:15;-0.90;99.90
21698;DHT22;11010;49.548;11.926;2023-02-28T07:38:47;-1.00;99.90
21698;DHT22;11010;49.548;11.926;2023-02-28T07:41:19;-0.90;99.90
21698;DHT22;11010;49.548;11.926;2023-02-28T07:43:47;-1.00;99.90
21698;DHT22;11010;49.548;11.926;2023-02-28T07:46:16;-1.00;99.90
21698;DHT22;11010;49.548;11.926;2023-02-28T07:48:44;-0.90;99.90
21698;DHT22;11010;49.548;11.926;2023-02-28T07:51:11;-0.80;99.90
21698;DHT22;11010;49.548;11.926;2023-02-28T07:53:39;-0.90;99.90
21698;DHT22;11010;49.548;11.926;2023-02-28T07:56:07;-0.80;99.90
21698;DHT22;11010;49.548;11.926;2023-02-28T07:58:34;-0.80;99.90
21698;DHT22;11010;49.548;11.926;2023-02-28T08:01:09;-0.80;99.90
21698;DHT22;11010;49.548;11.926;2023-02-28T08:03:38;-0.80;99.90
21698;DHT22;11010;49.548;11.926;2023-02-28T08:06:07;-0.80;99.90
21698;DHT22;11010;49.548;11.926;2023-02-28T08:08:35;-0.80;99.90
21698;DHT22;11010;49.548;11.926;2023-02-28T08:11:03;-0.70;99.90
21698;DHT22;11010;49.548;11.926;2023-02-28T08:13:30;-0.60;99.90
21698;DHT22;11010;49.548;11.926;2023-02-28T08:15:58;-0.60;99.90
21698;DHT22;11010;49.548;11.926;2023-02-28T08:18:28;-0.60;99.90
21698;DHT22;11010;49.548;11.926;2023-02-28T08:20:55;-0.50;99.90
21698;DHT22;11010;49.548;11.926;2023-02-28T08:23:23;-0.50;99.90
21698;DHT22;11010;49.548;11.926;2023-02-28T08:25:56;-0.40;99.90
21698;DHT22;11010;49.548;11.926;2023-02-28T08:28:24;-0.40;99.90
21698;DHT22;11010;49.548;11.926;2023-02-28T08:30:53;-0.40;99.90
21698;DHT22;11010;49.548;11.926;2023-02-28T08:33:22;-0.40;99.90
21698;DHT22;11010;49.548;11.926;2023-02-28T08:35:55;-0.30;99.90
21698;DHT22;11010;49.548;11.926;2023-02-28T08:38:23;-0.30;99.90
21698;DHT22;11010;49.548;11.926;2023-02-28T08:40:58;-0.30;99.90
21698;DHT22;11010;49.548;11.926;2023-02-28T08:43:26;-0.20;99.90
21698;DHT22;11010;49.548;11.926;2023-02-28T08:45:57;-0.20;99.90
21698;DHT22;11010;49.548;11.926;2023-02-28T08:48:28;-0.10;99.90
21698;DHT22;11010;49.548;11.926;2023-02-28T08:53:33;0.00;99.90
21698;DHT22;11010;49.548;11.926;2023-02-28T08:56:04;0.00;99.90
21698;DHT22;11010;49.548;11.926;2023-02-28T08:58:32;0.00;99.90
21698;DHT22;11010;49.548;11.926;2023-02-28T09:01:00;0.10;99.90
21698;DHT22;11010;49.548;11.926;2023-02-28T09:03:34;0.10;99.90
21698;DHT22;11010;49.548;11.926;2023-02-28T09:06:01;0.20;99.90
21698;DHT22;11010;49.548;11.926;2023-02-28T09:08:30;0.30;99.90
21698;DHT22;11010;49.548;11.926;2023-02-28T09:10:58;0.20;99.90
21698;DHT22;11010;49.548;11.926;2023-02-28T09:13:29;0.30;99.90
21698;DHT22;11010;49.548;11.926;2023-02-28T09:16:01;0.30;99.90
21698;DHT22;11010;49.548;11.926;2023-02-28T09:18:29;0.40;99.90
21698;DHT22;11010;49.548;11.926;2023-02-28T09:20:57;0.40;99.90
21698;DHT22;11010;49.548;11.926;2023-02-28T09:23:24;0.50;99.90
21698;DHT22;11010;49.548;11.926;2023-02-28T09:25:54;0.50;99.90
21698;DHT22;11010;49.548;11.926;2023-02-28T09:28:22;0.60;99.90
21698;DHT22;11010;49.548;11.926;2023-02-28T09:30:52;0.60;99.90
21698;DHT22;11010;49.548;11.926;2023-02-28T09:33:20;0.70;99.90
21698;DHT22;11010;49.548;11.926;2023-02-28T09:35:49;0.70;99.90
21698;DHT22;11010;49.548;11.926;2023-02-28T09:38:17;0.90;99.90
21698;DHT22;11010;49.548;11.926;2023-02-28T09:40:52;1.00;99.90
21698;DHT22;11010;49.548;11.926;2023-02-28T09:43:23;1.00;99.90
21698;DHT22;11010;49.548;11.926;2023-02-28T09:46:00;1.20;99.90
21698;DHT22;11010;49.548;11.926;2023-02-28T09:48:39;1.30;99.90
21698;DHT22;11010;49.548;11.926;2023-02-28T09:51:27;1.40;99.90
21698;DHT22;11010;49.548;11.926;2023-02-28T09:53:56;1.30;99.90
21698;DHT22;11010;49.548;11.926;2023-02-28T09:56:33;1.50;99.90
21698;DHT22;11010;49.548;11.926;2023-02-28T09:59:25;1.70;99.90
21698;DHT22;11010;49.548;11.926;2023-02-28T10:05:23;1.80;99.90
21698;DHT22;11010;49.548;11.926;2023-02-28T10:07:55;2.10;99.90
21698;DHT22;11010;49.548;11.926;2023-02-28T10:16:25;2.80;99.90
21698;DHT22;11010;49.548;11.926;2023-02-28T10:18:59;3.20;99.90
21698;DHT22;11010;49.548;11.926;2023-02-28T10:21:38;3.10;99.90
21698;DHT22;11010;49.548;11.926;2023-02-28T10:27:26;3.50;99.90
21698;DHT22;11010;49.548;11.926;2023-02-28T10:29:57;3.60;99.90
21698;DHT22;11010;49.548;11.926;2023-02-28T10:37:26;4.10;99.90
21698;DHT22;11010;49.548;11.926;2023-02-28T10:39:54;4.00;99.90
21698;DHT22;11010;49.548;11.926;2023-02-28T10:42:26;3.90;99.90
21698;DHT22;11010;49.548;11.926;2023-02-28T10:47:49;4.60;99.90
21698;DHT22;11010;49.548;11.926;2023-02-28T10:50:50;4.40;99.90
21698;DHT22;11010;49.548;11.926;2023-02-28T10:56:01;4.90;99.90
21698;DHT22;11010;49.548;11.926;2023-02-28T11:01:19;4.90;99.90
21698;DHT22;11010;49.548;11.926;2023-02-28T11:03:47;4.80;99.90
21698;DHT22;11010;49.548;11.926;2023-02-28T11:06:26;4.80;99.90
21698;DHT22;11010;49.548;11.926;2023-02-28T11:08:57;5.20;99.90
21698;DHT22;11010;49.548;11.926;2023-02-28T11:11:27;5.70;99.90
21698;DHT22;11010;49.548;11.926;2023-02-28T11:13:58;5.70;99.90
21698;DHT22;11010;49.548;11.926;2023-02-28T11:16:35;5.50;99.90
21698;DHT22;11010;49.548;11.926;2023-02-28T11:19:06;5.50;99.90
21698;DHT22;11010;49.548;11.926;2023-02-28T11:21:49;5.90;99.90
21698;DHT22;11010;49.548;11.926;2023-02-28T11:26:54;6.20;99.90
21698;DHT22;11010;49.548;11.926;2023-02-28T11:29:33;6.00;99.90
21698;DHT22;11010;49.548;11.926;2023-02-28T11:32:05;6.50;99.90
21698;DHT22;11010;49.548;11.926;2023-02-28T11:34:33;6.80;99.90
21698;DHT22;11010;49.548;11.926;2023-02-28T11:37:01;6.90;99.90
21698;DHT22;11010;49.548;11.926;2023-02-28T11:39:33;6.90;99.90
21698;DHT22;11010;49.548;11.926;2023-02-28T11:45:03;6.20;99.90
21698;DHT22;11010;49.548;11.926;2023-02-28T11:56:19;7.10;99.90
21698;DHT22;11010;49.548;11.926;2023-02-28T11:59:35;7.20;99.90
21698;DHT22;11010;49.548;11.926;2023-02-28T12:04:58;6.50;99.90
21698;DHT22;11010;49.548;11.926;2023-02-28T12:10:26;7.20;99.90
21698;DHT22;11010;49.548;11.926;2023-02-28T12:13:24;7.50;99.90
21698;DHT22;11010;49.548;11.926;2023-02-28T12:19:19;8.00;99.90
21698;DHT22;11010;49.548;11.926;2023-02-28T12:27:29;8.30;99.90
21698;DHT22;11010;49.548;11.926;2023-02-28T12:30:08;8.30;99.90
21698;DHT22;11010;49.548;11.926;2023-02-28T12:33:11;7.30;99.90
21698;DHT22;11010;49.548;11.926;2023-02-28T12:41:01;8.70;99.90
21698;DHT22;11010;49.548;11.926;2023-02-28T12:43:36;8.80;99.90
21698;DHT22;11010;49.548;11.926;2023-02-28T12:46:20;8.60;99.90
21698;DHT22;11010;49.548;11.926;2023-02-28T12:49:04;8.30;99.90
21698;DHT22;11010;49.548;11.926;2023-02-28T12:51:34;8.40;99.90
21698;DHT22;11010;49.548;11.926;2023-02-28T12:54:19;7.90;99.90
21698;DHT22;11010;49.548;11.926;2023-02-28T12:59:57;8.00;99.90
21698;DHT22;11010;49.548;11.926;2023-02-28T13:07:58;8.20;99.90
21698;DHT22;11010;49.548;11.926;2023-02-28T13:10:47;8.20;99.90
21698;DHT22;11010;49.548;11.926;2023-02-28T13:13:19;9.00;99.90
21698;DHT22;11010;49.548;11.926;2023-02-28T13:16:06;8.80;99.90
21698;DHT22;11010;49.548;11.926;2023-02-28T13:21:09;9.10;99.90
21698;DHT22;11010;49.548;11.926;2023-02-28T13:26:10;9.20;99.90
21698;DHT22;11010;49.548;11.926;2023-02-28T13:31:20;8.90;99.90
21698;DHT22;11010;49.548;11.926;2023-02-28T13:36:27;8.90;99.90
21698;DHT22;11010;49.548;11.926;2023-02-28T13:39:03;8.90;99.90
21698;DHT22;11010;49.548;11.926;2023-02-28T13:41:50;9.10;99.90
21698;DHT22;11010;49.548;11.926;2023-02-28T13:44:21;9.20;99.90
21698;DHT22;11010;49.548;11.926;2023-02-28T13:52:18;9.10;99.90
21698;DHT22;11010;49.548;11.926;2023-02-28T14:06:30;9.60;99.90
21698;DHT22;11010;49.548;11.926;2023-02-28T14:09:16;9.60;99.90
21698;DHT22;11010;49.548;11.926;2023-02-28T14:11:46;9.40;99.90
21698;DHT22;11010;49.548;11.926;2023-02-28T14:17:08;9.10;99.90
21698;DHT22;11010;49.548;11.926;2023-02-28T14:19:39;9.00;99.90
21698;DHT22;11010;49.548;11.926;2023-02-28T14:23:22;9.10;99.90
21698;DHT22;11010;49.548;11.926;2023-02-28T14:25:39;9.40;99.90
21698;DHT22;11010;49.548;11.926;2023-02-28T14:31:09;9.40;99.90
21698;DHT22;11010;49.548;11.926;2023-02-28T14:36:36;8.90;99.90
21698;DHT22;11010;49.548;11.926;2023-02-28T14:39:23;8.70;99.90
21698;DHT22;11010;49.548;11.926;2023-02-28T14:41:52;9.10;99.90
21698;DHT22;11010;49.548;11.926;2023-02-28T14:44:27;9.20;99.90
21698;DHT22;11010;49.548;11.926;2023-02-28T14:46:57;9.10;99.90
21698;DHT22;11010;49.548;11.926;2023-02-28T14:49:29;9.00;99.90
21698;DHT22;11010;49.548;11.926;2023-02-28T14:52:14;8.90;99.90
21698;DHT22;11010;49.548;11.926;2023-02-28T14:54:42;8.80;99.90
21698;DHT22;11010;49.548;11.926;2023-02-28T14:57:28;8.80;99.90
21698;DHT22;11010;49.548;11.926;2023-02-28T15:00:18;8.70;99.90
21698;DHT22;11010;49.548;11.926;2023-02-28T15:02:47;8.90;99.90
21698;DHT22;11010;49.548;11.926;2023-02-28T15:07:46;8.80;99.90
21698;DHT22;11010;49.548;11.926;2023-02-28T15:10:23;8.80;99.90
21698;DHT22;11010;49.548;11.926;2023-02-28T15:12:57;8.20;99.90
21698;DHT22;11010;49.548;11.926;2023-02-28T15:15:40;8.40;99.90
21698;DHT22;11010;49.548;11.926;2023-02-28T15:18:50;8.70;99.90
21698;DHT22;11010;49.548;11.926;2023-02-28T15:21:26;8.30;99.90
21698;DHT22;11010;49.548;11.926;2023-02-28T15:24:02;8.40;99.90
21698;DHT22;11010;49.548;11.926;2023-02-28T15:26:33;8.10;99.90
21698;DHT22;11010;49.548;11.926;2023-02-28T15:29:13;8.00;99.90
21698;DHT22;11010;49.548;11.926;2023-02-28T15:31:56;8.00;99.90
21698;DHT22;11010;49.548;11.926;2023-02-28T15:37:48;7.60;99.90
21698;DHT22;11010;49.548;11.926;2023-02-28T15:40:17;7.20;99.90
21698;DHT22;11010;49.548;11.926;2023-02-28T15:43:04;7.10;99.90
21698;DHT22;11010;49.548;11.926;2023-02-28T15:45:34;7.20;99.90
21698;DHT22;11010;49.548;11.926;2023-02-28T15:48:14;7.10;99.90
21698;DHT22;11010;49.548;11.926;2023-02-28T15:50:43;6.50;99.90
21698;DHT22;11010;49.548;11.926;2023-02-28T15:53:17;6.30;99.90
21698;DHT22;11010;49.548;11.926;2023-02-28T15:55:54;6.20;99.90
21698;DHT22;11010;49.548;11.926;2023-02-28T15:58:22;6.00;99.90
21698;DHT22;11010;49.548;11.926;2023-02-28T16:01:17;6.10;99.90
21698;DHT22;11010;49.548;11.926;2023-02-28T16:03:51;6.00;99.90
21698;DHT22;11010;49.548;11.926;2023-02-28T16:06:37;5.70;99.90
21698;DHT22;11010;49.548;11.926;2023-02-28T16:09:06;5.50;99.90
21698;DHT22;11010;49.548;11.926;2023-02-28T16:11:39;5.40;99.90
21698;DHT22;11010;49.548;11.926;2023-02-28T16:14:37;5.20;99.90
21698;DHT22;11010;49.548;11.926;2023-02-28T16:17:13;5.30;99.90
21698;DHT22;11010;49.548;11.926;2023-02-28T16:19:42;5.40;99.90
21698;DHT22;11010;49.548;11.926;2023-02-28T16:22:09;5.20;99.90
21698;DHT22;11010;49.548;11.926;2023-02-28T16:24:37;5.10;99.90
21698;DHT22;11010;49.548;11.926;2023-02-28T16:27:05;5.00;99.90
21698;DHT22;11010;49.548;11.926;2023-02-28T16:29:35;5.00;99.90
21698;DHT22;11010;49.548;11.926;2023-02-28T16:32:07;4.90;99.90
21698;DHT22;11010;49.548;11.926;2023-02-28T16:34:34;5.10;99.90
21698;DHT22;11010;49.548;11.926;2023-02-28T16:37:01;5.10;99.90
21698;DHT22;11010;49.548;11.926;2023-02-28T16:39:29;5.10;99.90
21698;DHT22;11010;49.548;11.926;2023-02-28T16:41:56;5.10;99.90
21698;DHT22;11010;49.548;11.926;2023-02-28T16:44:31;4.90;99.90
21698;DHT22;11010;49.548;11.926;2023-02-28T16:47:00;4.90;99.90
21698;DHT22;11010;49.548;11.926;2023-02-28T16:49:28;4.70;99.90
21698;DHT22;11010;49.548;11.926;2023-02-28T16:51:55;4.40;99.90
21698;DHT22;11010;49.548;11.926;2023-02-28T16:54:23;4.30;99.90
21698;DHT22;11010;49.548;11.926;2023-02-28T16:56:50;4.50;99.90
21698;DHT22;11010;49.548;11.926;2023-02-28T16:59:26;4.60;99.90
21698;DHT22;11010;49.548;11.926;2023-02-28T17:01:55;4.40;99.90
21698;DHT22;11010;49.548;11.926;2023-02-28T17:04:26;4.60;99.90
21698;DHT22;11010;49.548;11.926;2023-02-28T17:06:53;4.70;99.90
21698;DHT22;11010;49.548;11.926;2023-02-28T17:09:23;4.70;99.90
21698;DHT22;11010;49.548;11.926;2023-02-28T17:12:06;4.40;99.90
21698;DHT22;11010;49.548;11.926;2023-02-28T17:14:33;4.30;99.90
21698;DHT22;11010;49.548;11.926;2023-02-28T17:17:01;4.40;99.90
21698;DHT22;11010;49.548;11.926;2023-02-28T17:19:28;4.30;99.90
21698;DHT22;11010;49.548;11.926;2023-02-28T17:21:55;4.50;99.90
21698;DHT22;11010;49.548;11.926;2023-02-28T17:24:23;4.40;99.90
21698;DHT22;11010;49.548;11.926;2023-02-28T17:26:57;4.40;99.90
21698;DHT22;11010;49.548;11.926;2023-02-28T17:29:25;4.40;99.90
21698;DHT22;11010;49.548;11.926;2023-02-28T17:31:52;4.30;99.90
21698;DHT22;11010;49.548;11.926;2023-02-28T17:34:20;4.10;99.90
21698;DHT22;11010;49.548;11.926;2023-02-28T17:36:49;4.20;99.90
21698;DHT22;11010;49.548;11.926;2023-02-28T17:39:18;4.10;99.90
21698;DHT22;11010;49.548;11.926;2023-02-28T17:41:55;4.20;99.90
21698;DHT22;11010;49.548;11.926;2023-02-28T17:44:23;4.20;99.90
21698;DHT22;11010;49.548;11.926;2023-02-28T17:46:53;4.20;99.90
21698;DHT22;11010;49.548;11.926;2023-02-28T17:49:22;4.20;99.90
21698;DHT22;11010;49.548;11.926;2023-02-28T17:51:49;4.10;99.90
21698;DHT22;11010;49.548;11.926;2023-02-28T17:54:17;4.00;99.90
21698;DHT22;11010;49.548;11.926;2023-02-28T17:56:45;4.00;99.90
21698;DHT22;11010;49.548;11.926;2023-02-28T17:59:13;4.00;99.90
21698;DHT22;11010;49.548;11.926;2023-02-28T18:01:40;3.90;99.90
21698;DHT22;11010;49.548;11.926;2023-02-28T18:04:08;3.90;99.90
21698;DHT22;11010;49.548;11.926;2023-02-28T18:06:43;3.90;99.90
21698;DHT22;11010;49.548;11.926;2023-02-28T18:09:16;3.90;99.90
21698;DHT22;11010;49.548;11.926;2023-02-28T18:11:44;3.90;99.90
21698;DHT22;11010;49.548;11.926;2023-02-28T18:14:17;3.70;99.90